Weather History for KOKK - May, 2014

Change the Weather History Date:

Monday, May 5, 2014

  Actual Average (KGUS) Record (KGUS)
Temperature  
Mean Temperature 52 °F -  
Max Temperature 62 °F 68 °F 82 °F (2000)
Min Temperature 42 °F 50 °F 37 °F (2011)
Degree Days  
Heating Degree Days 13    
Growing Degree Days 2 (Base 50)    
Moisture  
Dew Point 36 °F    
Average Humidity 54    
Maximum Humidity 76    
Minimum Humidity 39    
Precipitation  
Precipitation 0.00 in - - ()
Sea Level Pressure  
Sea Level Pressure 29.94 in    
Wind  
Wind Speed 12 mph (East)    
Max Wind Speed 21 mph    
Max Gust Speed 28 mph    
Visibility 10 miles    
Events Thunderstorm    
Averages and records for this station are not official NWS values.
T = Trace of Precipitation, MM = Missing Value Source: NWS Daily Summary

Daily Weather History Graph

Daily Weather History Graph

Search for Another Location

Airport or City:

Trip Planner

Search our weather history database for the weather conditions in past years. The results will help you decide how hot, cold, wet, or windy it might be!

Date:

Astronomy

May. 05, 2014 Rise Set
Actual Time 5:38 AM CDT 7:44 PM CDT
Civil Twilight 5:08 AM CDT 8:14 PM CDT
Nautical Twilight 4:31 AM CDT 8:51 PM CDT
Astronomical Twilight 3:51 AM CDT 9:31 PM CDT
Moon 10:57 AM CDT (5/5) 12:27 AM CDT (5/5)
Length of Visible Light 15h 05m
Length of Day
14h 05m
Waxing Crescent, 37% of the Moon is Illuminated
May 5
Waxing Crescent
May 6
First Quarter
May 14
Full
May 21
Last Quarter
May 28
New

Hourly Weather History & Observations

Time (CDT) Temp. Windchill Dew Point Humidity Pressure Visibility Wind Dir Wind Speed Gust Speed Precip Events Conditions
12:15 AM 46.4 °F 42.9 °F 30.2 °F 53% 30.06 in 10.0 mi NE 6.9 mph - N/A   Mostly Cloudy
12:35 AM 46.4 °F 41.5 °F 30.2 °F 53% 30.02 in 10.0 mi East 10.4 mph - N/A   Mostly Cloudy
12:55 AM 46.4 °F 41.1 °F 30.2 °F 53% 30.01 in 10.0 mi East 11.5 mph - N/A   Partly Cloudy
1:15 AM 46.4 °F 41.9 °F 30.2 °F 53% 30.02 in 10.0 mi NE 9.2 mph - N/A   Clear
1:35 AM 46.4 °F 42.4 °F 30.2 °F 53% 30.01 in 10.0 mi ENE 8.1 mph - N/A   Partly Cloudy
1:55 AM 44.6 °F 39.7 °F 30.2 °F 57% 30.00 in 10.0 mi East 9.2 mph - N/A   Partly Cloudy
2:15 AM 44.6 °F 39.2 °F 30.2 °F 57% 30.00 in 10.0 mi ENE 10.4 mph - N/A   Scattered Clouds
2:35 AM 44.6 °F 40.7 °F 30.2 °F 57% 30.00 in 10.0 mi East 6.9 mph - N/A   Partly Cloudy
2:55 AM 44.6 °F 42.2 °F 32.0 °F 61% 30.01 in 10.0 mi East 4.6 mph - N/A Thunderstorm Scattered Clouds
3:15 AM 44.6 °F 40.2 °F 35.6 °F 71% 29.99 in 10.0 mi East 8.1 mph - N/A   Scattered Clouds
3:35 AM 44.6 °F 39.7 °F 33.8 °F 66% 29.97 in 10.0 mi ESE 9.2 mph - N/A   Clear
3:55 AM 42.8 °F 37.0 °F 35.6 °F 76% 29.99 in 10.0 mi East 10.4 mph - N/A   Clear
4:15 AM 42.8 °F 37.5 °F 33.8 °F 70% 30.00 in 10.0 mi East 9.2 mph - N/A   Scattered Clouds
4:35 AM 44.6 °F 39.2 °F 35.6 °F 71% 30.00 in 10.0 mi East 10.4 mph - N/A   Mostly Cloudy
4:55 AM 44.6 °F 39.2 °F 35.6 °F 71% 30.00 in 10.0 mi East 10.4 mph - N/A   Mostly Cloudy
5:15 AM 44.6 °F 40.2 °F 33.8 °F 66% 30.00 in 10.0 mi ESE 8.1 mph - N/A   Scattered Clouds
5:35 AM 44.6 °F 39.7 °F 35.6 °F 71% 30.01 in 10.0 mi East 9.2 mph - N/A   Partly Cloudy
5:55 AM 44.6 °F 36.4 °F 35.6 °F 71% 29.92 in 10.0 mi SE 20.7 mph 24.2 mph N/A   Clear
6:15 AM 46.4 °F 41.5 °F 33.8 °F 62% 29.99 in 10.0 mi East 10.4 mph - N/A   Clear
6:35 AM 46.4 °F 41.1 °F 35.6 °F 66% 30.00 in 10.0 mi East 11.5 mph - N/A   Clear
6:55 AM 46.4 °F 39.8 °F 35.6 °F 66% 29.96 in 10.0 mi SE 16.1 mph - N/A   Partly Cloudy
7:15 AM 48.2 °F - 33.8 °F 58% 29.94 in 10.0 mi SE 18.4 mph 21.9 mph N/A   Scattered Clouds
7:35 AM 48.2 °F - 35.6 °F 62% 29.96 in 10.0 mi ESE 13.8 mph - N/A   Mostly Cloudy
7:55 AM 48.2 °F - 35.6 °F 62% 29.96 in 10.0 mi ESE 15.0 mph - N/A   Mostly Cloudy
8:15 AM 50.0 °F - 35.6 °F 58% 29.96 in 10.0 mi ESE 15.0 mph - N/A   Partly Cloudy
8:35 AM 50.0 °F - 35.6 °F 58% 29.97 in 10.0 mi ESE 16.1 mph 21.9 mph N/A   Partly Cloudy
8:55 AM 51.8 °F - 35.6 °F 54% 29.95 in 10.0 mi ESE 18.4 mph 23.0 mph N/A   Partly Cloudy
9:15 AM - - - N/A% - - North - - N/A   Unknown
9:35 AM - - - N/A% - - North - - N/A   Unknown
9:55 AM 55.4 °F - 37.4 °F 51% 29.95 in 10.0 mi ESE 16.1 mph - N/A   Unknown
10:15 AM 55.4 °F - 37.4 °F 51% 29.94 in 10.0 mi ESE 17.3 mph 21.9 mph N/A   Clear
10:35 AM 57.2 °F - 37.4 °F 48% 29.94 in 10.0 mi East 16.1 mph - N/A   Clear
10:55 AM 57.2 °F - 37.4 °F 48% 29.93 in 10.0 mi ESE 15.0 mph 23.0 mph N/A   Clear
11:15 AM 59.0 °F - 37.4 °F 45% 29.92 in 10.0 mi East 17.3 mph - N/A   Clear
11:35 AM 60.8 °F - 37.4 °F 42% 29.92 in 10.0 mi East 19.6 mph 26.5 mph N/A   Clear
11:55 AM 59.0 °F - 37.4 °F 45% 29.91 in 10.0 mi East 16.1 mph 23.0 mph N/A   Clear
12:15 PM 59.0 °F - 37.4 °F 45% 29.92 in 10.0 mi East 15.0 mph 27.6 mph N/A   Clear
12:35 PM 60.8 °F - 39.2 °F 45% 29.91 in 10.0 mi East 16.1 mph 24.2 mph N/A   Clear
1:15 PM 62.6 °F - 39.2 °F 42% 29.90 in 10.0 mi East 16.1 mph 21.9 mph N/A   Clear
1:35 PM 62.6 °F - 37.4 °F 39% 29.91 in 10.0 mi East 13.8 mph - N/A   Clear
1:55 PM 62.6 °F - 41.0 °F 45% 29.91 in 10.0 mi ENE 17.3 mph 21.9 mph N/A   Clear
2:15 PM 62.6 °F - 41.0 °F 45% 29.91 in 10.0 mi ENE 19.6 mph 25.3 mph N/A   Clear
2:35 PM 62.6 °F - 41.0 °F 45% 29.90 in 10.0 mi East 20.7 mph 27.6 mph N/A   Clear
2:55 PM 62.6 °F - 42.8 °F 48% 29.90 in 10.0 mi East 19.6 mph 24.2 mph N/A   Clear
3:15 PM 60.8 °F - 41.0 °F 48% 29.89 in 10.0 mi East 17.3 mph 23.0 mph N/A   Clear
3:55 PM 62.6 °F - 41.0 °F 45% 29.88 in 10.0 mi East 17.3 mph - N/A   Clear
4:15 PM 62.6 °F - 41.0 °F 45% 29.88 in 10.0 mi East 18.4 mph 23.0 mph N/A   Clear
4:35 PM 62.6 °F - 41.0 °F 45% 29.88 in 10.0 mi East 15.0 mph - N/A   Clear
4:55 PM 62.6 °F - 41.0 °F 45% 29.88 in 10.0 mi East 15.0 mph 21.9 mph N/A   Clear
5:15 PM 62.6 °F - 41.0 °F 45% 29.89 in 10.0 mi East 13.8 mph 20.7 mph N/A   Clear
5:35 PM 62.6 °F - 39.2 °F 42% 29.88 in 10.0 mi East 13.8 mph 19.6 mph N/A   Clear
5:55 PM 60.8 °F - 39.2 °F 45% 29.88 in 10.0 mi East 16.1 mph - N/A   Clear
6:15 PM 60.8 °F - 39.2 °F 45% 29.88 in 10.0 mi East 13.8 mph - N/A   Clear
6:35 PM 60.8 °F - 39.2 °F 45% 29.89 in 10.0 mi ENE 13.8 mph - N/A   Clear
6:55 PM 57.2 °F - 39.2 °F 51% 29.89 in 10.0 mi ENE 13.8 mph - N/A   Clear
7:15 PM 57.2 °F - 37.4 °F 48% 29.90 in 10.0 mi ENE 11.5 mph - N/A   Clear
7:35 PM 57.2 °F - 37.4 °F 48% 29.90 in 10.0 mi ENE 10.4 mph - N/A   Clear
7:55 PM 55.4 °F - 35.6 °F 47% 29.90 in 10.0 mi ENE 11.5 mph - N/A   Clear
8:15 PM 53.6 °F - 37.4 °F 54% 29.90 in 10.0 mi ENE 10.4 mph - N/A   Clear
8:35 PM 53.6 °F - 35.6 °F 51% 29.92 in 10.0 mi ENE 6.9 mph - N/A   Clear
8:55 PM 51.8 °F - 37.4 °F 58% 29.92 in 10.0 mi ENE 8.1 mph - N/A   Clear
9:15 PM 51.8 °F - 37.4 °F 58% 29.92 in 10.0 mi ENE 10.4 mph - N/A   Clear
9:35 PM 53.6 °F - 35.6 °F 51% 29.92 in 10.0 mi ENE 13.8 mph - N/A   Clear
9:55 PM 51.8 °F - 35.6 °F 54% 29.93 in 10.0 mi ENE 9.2 mph - N/A   Clear
10:15 PM 51.8 °F - 35.6 °F 54% 29.94 in 10.0 mi East 9.2 mph - N/A   Clear
10:35 PM 51.8 °F - 35.6 °F 54% 29.93 in 10.0 mi ENE 12.7 mph - N/A   Clear
10:55 PM 50.0 °F - 35.6 °F 58% 29.93 in 10.0 mi East 9.2 mph - N/A   Clear
11:15 PM 50.0 °F - 35.6 °F 58% 29.94 in 10.0 mi East 11.5 mph - N/A   Clear
11:35 PM 50.0 °F - 35.6 °F 58% 29.94 in 10.0 mi East 11.5 mph - N/A   Clear
11:55 PM 48.2 °F - 35.6 °F 62% 29.96 in 10.0 mi ENE 10.4 mph - N/A   Clear